createdAt,value
2019-02-17T00:01:42.801Z,58.73
2019-02-17T00:04:10.314Z,58.81
2019-02-17T00:06:38.711Z,58.58
2019-02-17T00:09:06.302Z,58.44
2019-02-17T00:11:33.735Z,58.48
2019-02-17T00:14:01.224Z,58.59
2019-02-17T00:16:28.690Z,58.02
2019-02-17T00:18:56.159Z,58.13
2019-02-17T00:21:23.614Z,58.52
2019-02-17T00:23:51.047Z,58.07
2019-02-17T00:26:18.535Z,58.27
2019-02-17T00:28:45.994Z,58.10
2019-02-17T00:31:13.486Z,58.31
2019-02-17T00:33:40.950Z,58.64
2019-02-17T00:36:08.445Z,58.75
2019-02-17T00:38:35.934Z,58.74
2019-02-17T00:41:03.637Z,58.72
2019-02-17T00:43:31.192Z,58.32
2019-02-17T00:45:58.645Z,58.10
2019-02-17T00:48:26.134Z,58.58
2019-02-17T00:50:53.621Z,58.90
2019-02-17T00:53:21.127Z,58.48
2019-02-17T00:55:48.713Z,58.47
2019-02-17T00:58:16.232Z,58.28
2019-02-17T01:00:43.686Z,59.21
2019-02-17T01:03:11.274Z,58.87
2019-02-17T01:05:38.885Z,59.48
2019-02-17T01:08:06.347Z,59.04
2019-02-17T01:10:33.862Z,58.49
2019-02-17T01:13:01.354Z,59.34
2019-02-17T01:15:29.148Z,58.69
2019-02-17T01:17:56.650Z,58.67
2019-02-17T01:20:24.142Z,59.56
2019-02-17T01:22:51.671Z,58.98
2019-02-17T01:25:19.176Z,59.37
2019-02-17T01:27:46.619Z,59.11
2019-02-17T01:33:17.082Z,59.78
2019-02-17T01:35:44.585Z,60.04
2019-02-17T01:38:12.421Z,59.82
2019-02-17T01:40:40.248Z,59.86
2019-02-17T01:43:09.307Z,59.75
2019-02-17T01:45:37.795Z,59.51
2019-02-17T01:48:15.046Z,59.59
2019-02-17T01:50:42.674Z,60.06
2019-02-17T01:53:10.130Z,59.91
2019-02-17T01:55:37.571Z,60.25
2019-02-17T01:58:05.045Z,59.92
2019-02-17T02:00:32.511Z,60.12
2019-02-17T02:02:59.997Z,59.90
2019-02-17T02:05:27.523Z,59.89
2019-02-17T02:07:54.982Z,60.03
2019-02-17T02:10:22.429Z,59.91
2019-02-17T02:12:49.943Z,60.59
2019-02-17T02:15:19.447Z,60.98
2019-02-17T02:17:47.926Z,60.01
2019-02-17T02:20:15.449Z,59.96
2019-02-17T02:22:42.989Z,60.06
2019-02-17T02:25:10.481Z,60.32
2019-02-17T02:27:37.960Z,60.06
2019-02-17T02:30:06.933Z,60.20
2019-02-17T02:32:34.399Z,60.15
2019-02-17T02:35:01.888Z,60.42
2019-02-17T02:37:29.359Z,60.22
2019-02-17T02:39:56.855Z,60.32
2019-02-17T02:42:24.306Z,60.71
2019-02-17T02:44:51.740Z,60.52
2019-02-17T02:47:19.207Z,60.18
2019-02-17T02:49:46.672Z,60.09
2019-02-17T02:52:14.151Z,60.45
2019-02-17T02:54:41.608Z,59.97
2019-02-17T02:57:09.091Z,61.09
2019-02-17T02:59:36.563Z,60.75
2019-02-17T03:02:04.095Z,60.99
2019-02-17T03:04:31.652Z,61.37
2019-02-17T03:06:59.127Z,60.78
2019-02-17T03:09:26.569Z,61.21
2019-02-17T03:11:55.598Z,61.53
2019-02-17T03:14:23.191Z,61.35
2019-02-17T03:16:50.650Z,61.72
2019-02-17T03:19:18.131Z,61.39
2019-02-17T03:21:45.613Z,61.75
2019-02-17T03:24:13.073Z,61.11
2019-02-17T03:26:41.951Z,61.59
2019-02-17T03:29:09.488Z,62.00
2019-02-17T03:31:36.952Z,62.14
2019-02-17T03:34:04.482Z,61.96
2019-02-17T03:36:31.958Z,62.14
2019-02-17T03:38:59.482Z,62.90
2019-02-17T03:41:26.989Z,62.81
2019-02-17T03:43:54.446Z,62.67
2019-02-17T03:46:21.929Z,62.48
2019-02-17T03:48:49.376Z,63.03
2019-02-17T03:51:16.835Z,62.18
2019-02-17T03:53:44.333Z,62.25
2019-02-17T03:56:11.807Z,63.04
2019-02-17T03:58:39.347Z,62.39
2019-02-17T04:01:06.828Z,62.44
2019-02-17T04:03:34.254Z,62.07
2019-02-17T04:06:01.734Z,62.31
2019-02-17T04:08:29.246Z,63.01
2019-02-17T04:10:56.716Z,62.39
2019-02-17T04:13:24.193Z,63.23
2019-02-17T04:15:51.682Z,62.80
2019-02-17T04:18:19.147Z,63.32
2019-02-17T04:20:46.580Z,62.91
2019-02-17T04:23:14.053Z,62.51
2019-02-17T04:25:41.499Z,62.04
2019-02-17T04:28:08.936Z,61.91
2019-02-17T04:30:36.427Z,61.91
2019-02-17T04:33:03.934Z,61.67
2019-02-17T04:35:31.418Z,61.78
2019-02-17T04:37:58.880Z,61.61
2019-02-17T04:40:26.377Z,62.41
2019-02-17T04:42:53.837Z,61.98
2019-02-17T04:45:21.344Z,62.35
2019-02-17T04:47:48.819Z,62.35
2019-02-17T04:50:16.317Z,63.04
2019-02-17T04:52:43.756Z,62.47
2019-02-17T04:55:11.248Z,62.57
2019-02-17T04:57:38.719Z,62.30
2019-02-17T05:00:06.207Z,62.38
2019-02-17T05:02:33.643Z,62.44
2019-02-17T05:05:01.112Z,63.19
2019-02-17T05:07:29.302Z,63.33
2019-02-17T05:09:56.884Z,63.77
2019-02-17T05:12:24.331Z,63.47
2019-02-17T05:14:51.810Z,62.85
2019-02-17T05:17:19.257Z,62.50
2019-02-17T05:19:46.737Z,62.51
2019-02-17T05:22:14.227Z,62.38
2019-02-17T05:24:41.707Z,61.93
2019-02-17T05:27:09.192Z,61.92
2019-02-17T05:29:38.126Z,61.82
2019-02-17T05:32:05.662Z,61.98
2019-02-17T05:34:33.139Z,62.22
2019-02-17T05:37:00.586Z,62.23
2019-02-17T05:39:28.081Z,62.02
2019-02-17T05:41:55.543Z,61.98
2019-02-17T05:44:23.038Z,61.89
2019-02-17T05:46:50.494Z,61.42
2019-02-17T05:49:18.382Z,61.46
2019-02-17T05:51:45.862Z,61.38
2019-02-17T05:54:13.302Z,61.25
2019-02-17T05:56:40.835Z,60.98
2019-02-17T05:59:08.299Z,60.86
2019-02-17T06:01:35.782Z,61.03
2019-02-17T06:04:03.218Z,61.31
2019-02-17T06:06:30.743Z,61.01
2019-02-17T06:08:58.205Z,61.25
2019-02-17T06:11:25.679Z,61.52
2019-02-17T06:13:53.157Z,61.98
2019-02-17T06:16:20.611Z,61.79
2019-02-17T06:18:48.500Z,61.83
2019-02-17T06:21:15.976Z,61.94
2019-02-17T06:23:43.439Z,63.09
2019-02-17T06:26:10.894Z,62.67
2019-02-17T06:28:38.407Z,62.69
2019-02-17T06:31:13.975Z,62.67
2019-02-17T06:33:33.417Z,62.31
2019-02-17T06:36:00.896Z,62.15
2019-02-17T06:38:28.433Z,62.39
2019-02-17T06:40:55.922Z,62.24
2019-02-17T06:43:23.377Z,62.57
2019-02-17T06:45:50.824Z,62.29
2019-02-17T06:48:18.470Z,62.14
2019-02-17T06:50:45.963Z,62.34
2019-02-17T06:53:13.412Z,62.73
2019-02-17T06:55:41.815Z,62.31
2019-02-17T06:58:10.180Z,62.50
2019-02-17T07:00:37.692Z,61.93
2019-02-17T07:03:05.144Z,62.71
2019-02-17T07:05:32.609Z,62.34
2019-02-17T07:08:00.101Z,62.29
2019-02-17T07:10:27.575Z,62.67
2019-02-17T07:12:55.409Z,62.20
2019-02-17T07:15:23.114Z,62.02
2019-02-17T07:17:50.635Z,62.03
2019-02-17T07:20:18.715Z,61.76
2019-02-17T07:22:46.246Z,61.26
2019-02-17T07:25:13.772Z,60.99
2019-02-17T07:27:41.279Z,62.06
2019-02-17T07:30:08.768Z,61.09
2019-02-17T07:32:36.281Z,61.07
2019-02-17T07:35:03.907Z,60.71
2019-02-17T07:37:33.740Z,60.64
2019-02-17T07:39:58.832Z,60.41
2019-02-17T07:42:26.314Z,60.81
2019-02-17T07:44:53.804Z,60.56
2019-02-17T07:47:21.231Z,61.39
2019-02-17T07:49:48.718Z,60.60
2019-02-17T07:52:16.183Z,62.36
2019-02-17T07:54:44.920Z,61.46
2019-02-17T07:57:12.437Z,60.62
2019-02-17T07:59:40.023Z,61.28
2019-02-17T08:02:07.457Z,60.92
2019-02-17T08:04:35.176Z,60.20
2019-02-17T08:07:02.677Z,60.11
2019-02-17T08:09:30.240Z,60.13
2019-02-17T08:11:57.734Z,60.00
2019-02-17T08:14:25.216Z,59.99
2019-02-17T08:16:53.849Z,59.99
2019-02-17T08:19:21.277Z,59.85
2019-02-17T08:21:48.846Z,59.22
2019-02-17T08:24:16.308Z,58.83
2019-02-17T08:26:43.790Z,59.28
2019-02-17T08:29:11.348Z,58.58
2019-02-17T08:31:38.787Z,59.23
2019-02-17T08:34:06.284Z,59.01
2019-02-17T08:36:33.750Z,58.78
2019-02-17T08:39:01.246Z,58.99
2019-02-17T08:41:28.694Z,58.67
2019-02-17T08:43:56.166Z,58.30
2019-02-17T08:46:23.716Z,58.94
2019-02-17T08:48:51.155Z,58.67
2019-02-17T08:51:19.407Z,57.88
2019-02-17T08:53:46.895Z,57.64
2019-02-17T08:56:14.389Z,57.37
2019-02-17T08:58:41.857Z,56.38
2019-02-17T09:01:11.607Z,56.63
2019-02-17T09:03:39.219Z,55.79
2019-02-17T09:06:06.714Z,55.75
2019-02-17T09:08:34.201Z,55.18
2019-02-17T09:11:01.709Z,55.90
2019-02-17T09:13:29.185Z,55.93
2019-02-17T09:15:56.667Z,55.55
2019-02-17T09:18:24.154Z,56.26
2019-02-17T09:20:51.651Z,56.18
2019-02-17T09:23:20.078Z,56.17
2019-02-17T09:25:47.547Z,55.76
2019-02-17T09:28:15.038Z,55.88
2019-02-17T09:30:42.510Z,55.77
2019-02-17T09:33:09.983Z,55.25
2019-02-17T09:35:37.503Z,55.21
2019-02-17T09:38:04.980Z,54.57
2019-02-17T09:40:32.530Z,55.27
2019-02-17T09:43:00.058Z,53.84
2019-02-17T09:45:27.561Z,54.34
2019-02-17T09:47:55.034Z,54.08
2019-02-17T09:50:22.548Z,53.09
2019-02-17T09:52:50.675Z,54.25
2019-02-17T09:55:18.170Z,53.11
2019-02-17T09:57:45.640Z,53.29
2019-02-17T10:00:13.130Z,53.46
2019-02-17T10:02:40.591Z,53.48
2019-02-17T10:05:08.094Z,52.77
2019-02-17T10:07:35.670Z,52.43
2019-02-17T10:10:03.199Z,51.53
2019-02-17T10:12:30.642Z,51.50
2019-02-17T10:14:58.143Z,51.40
2019-02-17T10:17:25.729Z,51.50
2019-02-17T10:19:53.193Z,51.66
2019-02-17T10:22:21.421Z,52.03
2019-02-17T10:24:48.896Z,52.42
2019-02-17T10:27:16.358Z,51.25
2019-02-17T10:29:43.908Z,51.71
2019-02-17T10:32:11.465Z,50.63
2019-02-17T10:34:39.406Z,51.13
2019-02-17T10:37:06.926Z,50.48
2019-02-17T10:39:34.368Z,50.59
2019-02-17T10:42:01.866Z,50.84
2019-02-17T10:44:29.356Z,50.18
2019-02-17T10:46:57.282Z,49.46
2019-02-17T10:49:24.819Z,50.39
2019-02-17T10:51:52.531Z,50.41
2019-02-17T10:54:20.107Z,50.48
2019-02-17T10:56:47.570Z,48.64
2019-02-17T10:59:15.159Z,48.82
2019-02-17T11:01:42.704Z,49.84
2019-02-17T11:04:10.182Z,49.43
2019-02-17T11:06:37.675Z,48.59
2019-02-17T11:09:05.140Z,49.33
2019-02-17T11:11:32.656Z,49.13
2019-02-17T11:14:00.204Z,48.60
2019-02-17T11:16:27.678Z,48.42
2019-02-17T11:18:55.169Z,47.41
2019-02-17T11:21:22.605Z,48.26
2019-02-17T11:23:50.120Z,48.22
2019-02-17T11:26:17.589Z,48.45
2019-02-17T11:28:45.347Z,48.10
2019-02-17T11:31:12.793Z,47.16
2019-02-17T11:33:40.308Z,46.51
2019-02-17T11:36:07.773Z,47.48
2019-02-17T11:38:35.318Z,47.11
2019-02-17T11:41:04.753Z,46.98
2019-02-17T11:43:32.246Z,47.47
2019-02-17T11:45:59.748Z,45.89
2019-02-17T11:48:27.228Z,47.00
2019-02-17T11:50:54.703Z,46.97
2019-02-17T11:53:22.183Z,46.88
2019-02-17T11:55:50.483Z,44.68
2019-02-17T11:58:18.763Z,46.35
2019-02-17T12:00:46.326Z,43.40
2019-02-17T12:03:13.788Z,45.30
2019-02-17T12:05:41.255Z,45.04
2019-02-17T12:08:08.866Z,41.78
2019-02-17T12:10:36.637Z,42.48
2019-02-17T12:13:04.328Z,41.53
2019-02-17T12:15:31.786Z,42.25
2019-02-17T12:17:59.425Z,42.36
2019-02-17T12:20:32.582Z,43.67
2019-02-17T12:23:00.062Z,43.89
2019-02-17T12:25:38.404Z,43.63
2019-02-17T12:28:06.352Z,42.46
2019-02-17T12:30:33.818Z,42.78
2019-02-17T12:33:01.345Z,44.29
2019-02-17T12:35:28.799Z,43.95
2019-02-17T12:37:56.411Z,44.50
2019-02-17T12:40:24.474Z,43.18
2019-02-17T12:42:51.945Z,44.53
2019-02-17T12:45:19.413Z,42.75
2019-02-17T12:47:55.379Z,42.96
2019-02-17T12:50:14.431Z,42.86
2019-02-17T12:52:47.012Z,43.38
2019-02-17T12:55:09.625Z,42.06
2019-02-17T12:57:37.283Z,41.07
2019-02-17T13:00:04.967Z,41.26
2019-02-17T13:02:32.481Z,41.00
2019-02-17T13:04:59.978Z,42.75
2019-02-17T13:07:27.427Z,41.42
2019-02-17T13:09:55.266Z,42.06
2019-02-17T13:12:22.721Z,41.14
2019-02-17T13:14:50.220Z,39.11
2019-02-17T13:17:17.655Z,40.06
2019-02-17T13:19:45.162Z,36.46
2019-02-17T13:22:12.602Z,38.39
2019-02-17T13:24:40.858Z,37.01
2019-02-17T13:27:08.399Z,36.20
2019-02-17T13:29:35.869Z,37.53
2019-02-17T13:32:03.369Z,34.85
2019-02-17T13:34:30.861Z,35.41
2019-02-17T13:36:58.364Z,35.61
2019-02-17T13:39:25.887Z,34.91
2019-02-17T13:41:53.342Z,36.35
2019-02-17T13:44:20.774Z,35.82
2019-02-17T13:46:48.311Z,35.09
2019-02-17T13:49:15.844Z,35.68
2019-02-17T13:51:43.323Z,35.04
2019-02-17T13:54:10.769Z,35.34
2019-02-17T13:56:38.221Z,36.04
2019-02-17T13:59:05.689Z,37.03
2019-02-17T14:01:33.205Z,36.70
2019-02-17T14:04:00.693Z,37.11
2019-02-17T14:06:28.177Z,36.04
2019-02-17T14:08:56.295Z,36.35
2019-02-17T14:11:25.634Z,37.34
2019-02-17T14:13:53.115Z,35.99
2019-02-17T14:16:20.581Z,37.46
2019-02-17T14:18:48.077Z,37.60
2019-02-17T14:21:15.554Z,36.56
2019-02-17T14:23:43.057Z,36.83
2019-02-17T14:26:10.521Z,38.04
2019-02-17T14:28:38.040Z,36.88
2019-02-17T14:31:05.484Z,38.62
2019-02-17T14:33:32.973Z,37.96
2019-02-17T14:36:00.478Z,37.54
2019-02-17T14:38:27.938Z,35.88
2019-02-17T14:40:55.387Z,36.14
2019-02-17T14:43:22.848Z,36.36
2019-02-17T14:45:50.287Z,37.62
2019-02-17T14:48:18.697Z,38.02
2019-02-17T14:50:46.257Z,37.33
2019-02-17T14:53:15.941Z,37.93
2019-02-17T14:55:41.197Z,38.87
2019-02-17T14:58:08.645Z,38.03
2019-02-17T15:00:36.098Z,37.03
2019-02-17T15:03:03.586Z,38.30
2019-02-17T15:05:31.056Z,38.20
2019-02-17T15:07:58.495Z,38.81
2019-02-17T15:10:25.996Z,37.88
2019-02-17T15:12:53.478Z,37.83
2019-02-17T15:15:20.946Z,38.61
2019-02-17T15:17:48.370Z,37.83
2019-02-17T15:20:15.848Z,37.95
2019-02-17T15:22:44.470Z,38.72
2019-02-17T15:25:11.925Z,38.65
2019-02-17T15:27:39.394Z,37.94
2019-02-17T15:30:06.851Z,38.21
2019-02-17T15:32:34.355Z,38.39
2019-02-17T15:35:01.827Z,38.60
2019-02-17T15:37:29.271Z,38.68
2019-02-17T15:39:56.709Z,38.39
2019-02-17T15:42:24.186Z,38.92
2019-02-17T15:44:53.771Z,39.16
2019-02-17T15:47:21.319Z,39.96
2019-02-17T15:49:48.748Z,40.12
2019-02-17T15:52:16.224Z,39.80
2019-02-17T15:54:43.723Z,39.57
2019-02-17T15:57:11.184Z,40.33
2019-02-17T15:59:38.650Z,40.41
2019-02-17T16:02:06.083Z,41.39
2019-02-17T16:04:34.399Z,40.89
2019-02-17T16:07:01.830Z,40.40
2019-02-17T16:09:29.312Z,40.36
2019-02-17T16:11:56.761Z,41.13
2019-02-17T16:14:24.284Z,40.13
2019-02-17T16:16:51.719Z,41.13
2019-02-17T16:19:19.158Z,41.26
2019-02-17T16:21:46.625Z,41.65
2019-02-17T16:24:14.064Z,42.03
2019-02-17T16:26:42.270Z,41.68
2019-02-17T16:29:09.729Z,39.73
2019-02-17T16:31:37.195Z,41.19
2019-02-17T16:34:04.657Z,39.97
2019-02-17T16:36:32.111Z,40.67
2019-02-17T16:38:59.547Z,41.14
2019-02-17T16:41:27.018Z,39.72
2019-02-17T16:43:54.442Z,39.11
2019-02-17T16:46:21.963Z,40.75
2019-02-17T16:48:49.552Z,41.26
2019-02-17T16:51:16.870Z,41.75
2019-02-17T16:53:44.310Z,41.62
2019-02-17T16:56:11.773Z,41.84
2019-02-17T16:58:39.261Z,41.03
2019-02-17T17:01:06.714Z,41.26
2019-02-17T17:03:34.160Z,42.14
2019-02-17T17:06:01.619Z,42.07
2019-02-17T17:08:29.810Z,41.96
2019-02-17T17:10:58.014Z,42.61
2019-02-17T17:13:25.519Z,42.34
2019-02-17T17:15:52.995Z,42.66
2019-02-17T17:18:20.447Z,42.46
2019-02-17T17:20:47.924Z,42.85
2019-02-17T17:23:15.374Z,42.42
2019-02-17T17:25:42.889Z,42.83
2019-02-17T17:28:10.344Z,42.91
2019-02-17T17:30:37.834Z,42.96
2019-02-17T17:33:05.334Z,42.82
2019-02-17T17:35:32.881Z,42.74
2019-02-17T17:38:00.396Z,43.75
2019-02-17T17:40:27.832Z,44.14
2019-02-17T17:42:55.337Z,43.59
2019-02-17T17:45:22.771Z,43.52
2019-02-17T17:47:50.220Z,44.51
2019-02-17T17:50:17.693Z,44.06
2019-02-17T17:52:45.131Z,44.50
2019-02-17T17:55:12.579Z,44.54
2019-02-17T17:57:40.299Z,44.56
2019-02-17T18:00:13.498Z,44.68
2019-02-17T18:02:41.143Z,44.02
2019-02-17T18:05:09.639Z,44.45
2019-02-17T18:07:36.275Z,43.88
2019-02-17T18:10:03.757Z,44.26
2019-02-17T18:12:31.217Z,44.48
2019-02-17T18:14:58.651Z,44.26
2019-02-17T18:17:26.173Z,44.25
2019-02-17T18:19:53.642Z,44.66
2019-02-17T18:22:21.090Z,44.26
2019-02-17T18:24:48.606Z,44.63
2019-02-17T18:27:16.085Z,44.26
2019-02-17T18:29:43.518Z,44.78
2019-02-17T18:32:10.979Z,44.73
2019-02-17T18:34:38.418Z,44.11
2019-02-17T18:37:05.888Z,44.50
2019-02-17T18:39:34.582Z,44.85
2019-02-17T18:42:02.133Z,45.14
2019-02-17T18:44:29.574Z,44.97
2019-02-17T18:46:57.036Z,45.38
2019-02-17T18:49:24.462Z,45.47
2019-02-17T18:51:51.939Z,45.04
2019-02-17T18:54:19.429Z,45.19
2019-02-17T18:56:46.881Z,45.34
2019-02-17T18:59:14.349Z,45.70
2019-02-17T19:01:43.253Z,45.91
2019-02-17T19:04:10.723Z,45.89
2019-02-17T19:06:38.156Z,46.07
2019-02-17T19:09:05.606Z,46.75
2019-02-17T19:11:33.037Z,46.96
2019-02-17T19:14:00.483Z,46.96
2019-02-17T19:16:27.927Z,46.83
2019-02-17T19:18:55.413Z,46.30
2019-02-17T19:21:22.943Z,46.81
2019-02-17T19:23:50.363Z,47.14
2019-02-17T19:26:17.845Z,47.22
2019-02-17T19:28:45.271Z,47.17
2019-02-17T19:31:12.723Z,47.30
2019-02-17T19:33:40.176Z,47.48
2019-02-17T19:36:07.651Z,47.23
2019-02-17T19:38:35.102Z,47.37
2019-02-17T19:41:02.718Z,47.36
2019-02-17T19:43:30.141Z,46.97
2019-02-17T19:45:57.582Z,47.54
2019-02-17T19:48:25.079Z,47.75
2019-02-17T19:50:52.532Z,47.67
2019-02-17T19:53:20.019Z,47.65
2019-02-17T19:55:47.470Z,47.51
2019-02-17T19:58:14.933Z,47.09
2019-02-17T20:00:43.432Z,46.92
2019-02-17T20:03:16.441Z,47.05
2019-02-17T20:05:51.852Z,47.38
2019-02-17T20:08:14.269Z,47.15
2019-02-17T20:10:41.709Z,47.22
2019-02-17T20:13:09.185Z,47.19
2019-02-17T20:15:36.627Z,47.08
2019-02-17T20:18:04.099Z,47.30
2019-02-17T20:20:31.553Z,47.35
2019-02-17T20:22:59.014Z,46.96
2019-02-17T20:25:26.549Z,46.99
2019-02-17T20:27:53.947Z,47.67
2019-02-17T20:30:21.402Z,47.21
2019-02-17T20:32:48.857Z,46.03
2019-02-17T20:35:16.345Z,46.52
2019-02-17T20:37:43.799Z,46.23
2019-02-17T20:40:11.249Z,46.45
2019-02-17T20:42:38.678Z,46.10
2019-02-17T20:45:06.175Z,45.91
2019-02-17T20:47:33.919Z,45.96
2019-02-17T20:50:01.358Z,45.57
2019-02-17T20:52:28.847Z,45.19
2019-02-17T20:54:56.334Z,45.62
2019-02-17T20:57:23.784Z,46.42
2019-02-17T20:59:51.203Z,46.16
2019-02-17T21:02:18.704Z,46.44
2019-02-17T21:04:46.200Z,46.16
2019-02-17T21:07:13.623Z,46.26
2019-02-17T21:09:41.101Z,46.24
2019-02-17T21:12:08.633Z,46.14
2019-02-17T21:14:36.079Z,45.68
2019-02-17T21:17:04.597Z,46.75
2019-02-17T21:19:32.074Z,46.67
2019-02-17T21:21:59.579Z,46.86
2019-02-17T21:24:27.054Z,47.17
2019-02-17T21:26:54.516Z,46.31
2019-02-17T21:29:22.002Z,45.85
2019-02-17T21:31:49.429Z,47.08
2019-02-17T21:34:16.926Z,46.67
2019-02-17T21:36:44.363Z,47.17
2019-02-17T21:39:11.844Z,46.03
2019-02-17T21:41:39.281Z,46.76
2019-02-17T21:44:06.766Z,45.49
2019-02-17T21:46:35.075Z,46.43
2019-02-17T21:49:02.507Z,47.09
2019-02-17T21:51:29.984Z,46.94
2019-02-17T21:53:57.481Z,46.95
2019-02-17T21:56:25.166Z,46.82
2019-02-17T21:58:53.085Z,47.04
2019-02-17T22:01:21.034Z,47.37
2019-02-17T22:03:48.636Z,47.43
2019-02-17T22:06:16.143Z,46.76
2019-02-17T22:08:43.609Z,47.11
2019-02-17T22:11:11.084Z,47.15
2019-02-17T22:13:38.548Z,47.48
2019-02-17T22:16:07.246Z,47.14
2019-02-17T22:18:35.774Z,47.45
2019-02-17T22:21:03.235Z,47.62
2019-02-17T22:23:30.734Z,48.13
2019-02-17T22:25:58.228Z,48.86
2019-02-17T22:28:25.685Z,47.38
2019-02-17T22:30:53.132Z,49.16
2019-02-17T22:33:20.555Z,48.51
2019-02-17T22:35:47.996Z,49.22
2019-02-17T22:38:15.475Z,47.58
2019-02-17T22:40:42.960Z,48.32
2019-02-17T22:43:11.965Z,47.92
2019-02-17T22:45:39.467Z,48.38
2019-02-17T22:48:06.944Z,48.44
2019-02-17T22:50:34.414Z,49.07
2019-02-17T22:53:01.894Z,49.73
2019-02-17T22:55:29.378Z,48.65
2019-02-17T22:57:56.832Z,48.35
2019-02-17T23:00:26.254Z,48.68
2019-02-17T23:02:53.738Z,48.98
2019-02-17T23:05:21.291Z,48.76
2019-02-17T23:07:48.725Z,48.85
2019-02-17T23:10:16.206Z,49.27
2019-02-17T23:12:43.666Z,48.70
2019-02-17T23:15:11.133Z,49.41
2019-02-17T23:17:38.580Z,50.13
2019-02-17T23:20:06.907Z,49.62
2019-02-17T23:22:34.369Z,49.40
2019-02-17T23:25:01.873Z,49.05
2019-02-17T23:27:29.338Z,49.30
2019-02-17T23:29:57.123Z,49.86
2019-02-17T23:32:24.594Z,49.03
2019-02-17T23:34:52.082Z,50.28
2019-02-17T23:37:19.545Z,50.20
2019-02-17T23:39:47.017Z,50.09
2019-02-17T23:42:14.482Z,50.00
2019-02-17T23:44:41.928Z,49.95
2019-02-17T23:47:09.394Z,50.70
2019-02-17T23:49:37.512Z,49.95
2019-02-17T23:52:05.037Z,50.49
2019-02-17T23:54:32.483Z,49.70
2019-02-17T23:56:59.936Z,50.44
2019-02-17T23:59:27.372Z,50.35
